sensor_id;sensor_type;location;lat;lon;timestamp;temperature;humidity
20233;DHT22;37438;55.674;13.074;2023-02-03T00:00:14;1.10;99.90
20233;DHT22;37438;55.674;13.074;2023-02-03T00:03:20;1.10;99.90
20233;DHT22;37438;55.674;13.074;2023-02-03T00:06:25;1.00;99.90
20233;DHT22;37438;55.674;13.074;2023-02-03T00:09:32;1.20;99.90
20233;DHT22;37438;55.674;13.074;2023-02-03T00:12:36;1.30;99.90
20233;DHT22;37438;55.674;13.074;2023-02-03T00:15:42;1.30;99.90
20233;DHT22;37438;55.674;13.074;2023-02-03T00:18:47;1.30;99.90
20233;DHT22;37438;55.674;13.074;2023-02-03T00:22:01;1.40;99.90
20233;DHT22;37438;55.674;13.074;2023-02-03T00:25:06;1.50;99.90
20233;DHT22;37438;55.674;13.074;2023-02-03T00:28:12;1.60;99.90
20233;DHT22;37438;55.674;13.074;2023-02-03T00:31:19;1.60;99.90
20233;DHT22;37438;55.674;13.074;2023-02-03T00:34:28;1.70;99.90
20233;DHT22;37438;55.674;13.074;2023-02-03T00:37:34;1.70;99.90
20233;DHT22;37438;55.674;13.074;2023-02-03T00:40:39;1.60;99.90
20233;DHT22;37438;55.674;13.074;2023-02-03T00:43:44;1.80;99.90
20233;DHT22;37438;55.674;13.074;2023-02-03T00:46:50;1.80;99.90
20233;DHT22;37438;55.674;13.074;2023-02-03T00:49:55;1.90;99.90
20233;DHT22;37438;55.674;13.074;2023-02-03T00:53:01;1.90;99.90
20233;DHT22;37438;55.674;13.074;2023-02-03T00:56:08;1.90;99.90
20233;DHT22;37438;55.674;13.074;2023-02-03T00:59:16;2.00;99.90
20233;DHT22;37438;55.674;13.074;2023-02-03T01:02:21;1.90;99.90
20233;DHT22;37438;55.674;13.074;2023-02-03T01:05:29;2.00;99.90
20233;DHT22;37438;55.674;13.074;2023-02-03T01:08:35;2.10;99.90
20233;DHT22;37438;55.674;13.074;2023-02-03T01:11:42;2.00;99.90
20233;DHT22;37438;55.674;13.074;2023-02-03T01:14:59;2.00;99.90
20233;DHT22;37438;55.674;13.074;2023-02-03T01:18:10;2.20;99.90
20233;DHT22;37438;55.674;13.074;2023-02-03T01:21:18;2.00;99.90
20233;DHT22;37438;55.674;13.074;2023-02-03T01:24:24;2.00;99.90
20233;DHT22;37438;55.674;13.074;2023-02-03T01:27:31;1.90;99.90
20233;DHT22;37438;55.674;13.074;2023-02-03T01:30:38;1.90;99.90
20233;DHT22;37438;55.674;13.074;2023-02-03T01:33:46;1.90;99.90
20233;DHT22;37438;55.674;13.074;2023-02-03T01:36:53;2.00;99.90
20233;DHT22;37438;55.674;13.074;2023-02-03T01:39:58;1.90;99.90
20233;DHT22;37438;55.674;13.074;2023-02-03T01:43:58;1.80;99.90
20233;DHT22;37438;55.674;13.074;2023-02-03T01:47:04;1.90;99.90
20233;DHT22;37438;55.674;13.074;2023-02-03T01:50:26;2.00;99.90
20233;DHT22;37438;55.674;13.074;2023-02-03T01:54:21;2.00;99.90
20233;DHT22;37438;55.674;13.074;2023-02-03T01:57:44;2.00;99.90
20233;DHT22;37438;55.674;13.074;2023-02-03T02:00:54;2.00;99.90
20233;DHT22;37438;55.674;13.074;2023-02-03T02:04:16;1.90;99.90
20233;DHT22;37438;55.674;13.074;2023-02-03T02:07:38;2.00;99.90
20233;DHT22;37438;55.674;13.074;2023-02-03T02:19:57;2.10;99.90
20233;DHT22;37438;55.674;13.074;2023-02-03T02:27:20;2.10;99.90
20233;DHT22;37438;55.674;13.074;2023-02-03T02:30:57;2.10;99.90
20233;DHT22;37438;55.674;13.074;2023-02-03T02:35:16;2.40;99.90
20233;DHT22;37438;55.674;13.074;2023-02-03T02:46:47;2.30;99.90
20233;DHT22;37438;55.674;13.074;2023-02-03T02:50:10;2.40;99.90
20233;DHT22;37438;55.674;13.074;2023-02-03T02:53:35;2.30;99.90
20233;DHT22;37438;55.674;13.074;2023-02-03T02:56:43;2.30;99.90
20233;DHT22;37438;55.674;13.074;2023-02-03T02:59:53;2.60;99.90
20233;DHT22;37438;55.674;13.074;2023-02-03T03:03:22;2.60;99.90
20233;DHT22;37438;55.674;13.074;2023-02-03T03:06:43;2.50;99.90
20233;DHT22;37438;55.674;13.074;2023-02-03T03:10:16;2.60;99.90
20233;DHT22;37438;55.674;13.074;2023-02-03T03:13:28;2.50;99.90
20233;DHT22;37438;55.674;13.074;2023-02-03T03:16:38;2.60;99.90
20233;DHT22;37438;55.674;13.074;2023-02-03T03:19:51;2.70;99.90
20233;DHT22;37438;55.674;13.074;2023-02-03T03:23:03;2.80;99.90
20233;DHT22;37438;55.674;13.074;2023-02-03T03:26:40;2.70;99.90
20233;DHT22;37438;55.674;13.074;2023-02-03T03:29:56;2.80;99.90
20233;DHT22;37438;55.674;13.074;2023-02-03T03:33:04;2.90;99.90
20233;DHT22;37438;55.674;13.074;2023-02-03T03:39:36;2.80;99.90
20233;DHT22;37438;55.674;13.074;2023-02-03T03:43:13;3.10;99.90
20233;DHT22;37438;55.674;13.074;2023-02-03T03:46:27;3.00;99.90
20233;DHT22;37438;55.674;13.074;2023-02-03T03:49:46;3.00;99.90
20233;DHT22;37438;55.674;13.074;2023-02-03T03:52:53;3.00;99.90
20233;DHT22;37438;55.674;13.074;2023-02-03T03:56:00;3.00;99.90
20233;DHT22;37438;55.674;13.074;2023-02-03T03:59:08;3.20;99.90
20233;DHT22;37438;55.674;13.074;2023-02-03T04:02:18;3.20;99.90
20233;DHT22;37438;55.674;13.074;2023-02-03T04:05:26;3.10;99.90
20233;DHT22;37438;55.674;13.074;2023-02-03T04:08:31;3.30;99.90
20233;DHT22;37438;55.674;13.074;2023-02-03T04:11:37;3.20;99.90
20233;DHT22;37438;55.674;13.074;2023-02-03T04:15:00;3.30;99.90
20233;DHT22;37438;55.674;13.074;2023-02-03T04:18:11;3.20;99.90
20233;DHT22;37438;55.674;13.074;2023-02-03T04:21:17;3.30;99.90
20233;DHT22;37438;55.674;13.074;2023-02-03T04:24:22;3.30;99.90
20233;DHT22;37438;55.674;13.074;2023-02-03T04:27:28;3.20;99.90
20233;DHT22;37438;55.674;13.074;2023-02-03T04:30:37;3.30;99.90
20233;DHT22;37438;55.674;13.074;2023-02-03T04:33:43;3.30;99.90
20233;DHT22;37438;55.674;13.074;2023-02-03T04:36:48;3.30;99.90
20233;DHT22;37438;55.674;13.074;2023-02-03T04:39:56;3.20;99.90
20233;DHT22;37438;55.674;13.074;2023-02-03T04:43:06;3.30;99.90
20233;DHT22;37438;55.674;13.074;2023-02-03T04:46:11;3.20;99.90
20233;DHT22;37438;55.674;13.074;2023-02-03T04:49:16;3.30;99.90
20233;DHT22;37438;55.674;13.074;2023-02-03T04:52:21;3.30;99.90
20233;DHT22;37438;55.674;13.074;2023-02-03T04:55:29;3.30;99.90
20233;DHT22;37438;55.674;13.074;2023-02-03T04:58:35;3.30;99.90
20233;DHT22;37438;55.674;13.074;2023-02-03T05:01:40;3.40;99.90
20233;DHT22;37438;55.674;13.074;2023-02-03T05:04:45;3.50;99.90
20233;DHT22;37438;55.674;13.074;2023-02-03T05:07:51;3.40;99.90
20233;DHT22;37438;55.674;13.074;2023-02-03T05:10:56;3.50;99.90
20233;DHT22;37438;55.674;13.074;2023-02-03T05:14:05;3.50;99.90
20233;DHT22;37438;55.674;13.074;2023-02-03T05:17:11;3.40;99.90
20233;DHT22;37438;55.674;13.074;2023-02-03T05:20:16;3.60;99.90
20233;DHT22;37438;55.674;13.074;2023-02-03T05:23:21;3.60;99.90
20233;DHT22;37438;55.674;13.074;2023-02-03T05:26:25;3.50;99.90
20233;DHT22;37438;55.674;13.074;2023-02-03T05:29:30;3.50;99.90
20233;DHT22;37438;55.674;13.074;2023-02-03T05:32:35;3.60;99.90
20233;DHT22;37438;55.674;13.074;2023-02-03T05:35:41;3.60;99.90
20233;DHT22;37438;55.674;13.074;2023-02-03T05:38:46;3.50;99.90
20233;DHT22;37438;55.674;13.074;2023-02-03T05:41:54;3.70;99.90
20233;DHT22;37438;55.674;13.074;2023-02-03T05:45:02;3.80;99.90
20233;DHT22;37438;55.674;13.074;2023-02-03T05:48:07;3.70;99.90
20233;DHT22;37438;55.674;13.074;2023-02-03T05:51:13;3.80;99.90
20233;DHT22;37438;55.674;13.074;2023-02-03T05:54:20;3.80;99.90
20233;DHT22;37438;55.674;13.074;2023-02-03T05:57:25;3.90;99.90
20233;DHT22;37438;55.674;13.074;2023-02-03T06:00:30;3.90;99.90
20233;DHT22;37438;55.674;13.074;2023-02-03T06:03:35;3.90;99.90
20233;DHT22;37438;55.674;13.074;2023-02-03T06:06:40;3.90;99.90
20233;DHT22;37438;55.674;13.074;2023-02-03T06:09:45;4.10;99.90
20233;DHT22;37438;55.674;13.074;2023-02-03T06:12:53;4.00;99.90
20233;DHT22;37438;55.674;13.074;2023-02-03T06:16:00;4.10;99.90
20233;DHT22;37438;55.674;13.074;2023-02-03T06:19:06;4.30;99.90
20233;DHT22;37438;55.674;13.074;2023-02-03T06:22:11;4.40;99.90
20233;DHT22;37438;55.674;13.074;2023-02-03T06:25:16;4.40;99.90
20233;DHT22;37438;55.674;13.074;2023-02-03T06:28:21;4.50;99.90
20233;DHT22;37438;55.674;13.074;2023-02-03T06:31:26;4.60;99.90
20233;DHT22;37438;55.674;13.074;2023-02-03T06:34:35;4.80;99.90
20233;DHT22;37438;55.674;13.074;2023-02-03T06:37:43;4.70;99.90
20233;DHT22;37438;55.674;13.074;2023-02-03T06:40:49;4.80;99.90
20233;DHT22;37438;55.674;13.074;2023-02-03T06:43:56;4.90;99.90
20233;DHT22;37438;55.674;13.074;2023-02-03T06:47:10;4.90;99.90
20233;DHT22;37438;55.674;13.074;2023-02-03T06:50:17;5.00;99.90
20233;DHT22;37438;55.674;13.074;2023-02-03T06:53:23;5.10;99.90
20233;DHT22;37438;55.674;13.074;2023-02-03T06:56:32;5.20;99.90
20233;DHT22;37438;55.674;13.074;2023-02-03T06:59:39;5.20;99.90
20233;DHT22;37438;55.674;13.074;2023-02-03T07:02:56;5.50;99.90
20233;DHT22;37438;55.674;13.074;2023-02-03T07:10:14;6.00;99.90
20233;DHT22;37438;55.674;13.074;2023-02-03T07:13:46;6.20;99.90
20233;DHT22;37438;55.674;13.074;2023-02-03T15:59:56;3.40;99.90
20233;DHT22;37438;55.674;13.074;2023-02-03T16:03:18;3.40;99.90
20233;DHT22;37438;55.674;13.074;2023-02-03T16:06:55;3.30;99.90
20233;DHT22;37438;55.674;13.074;2023-02-03T16:10:05;3.20;99.90
20233;DHT22;37438;55.674;13.074;2023-02-03T16:13:31;3.20;99.90
20233;DHT22;37438;55.674;13.074;2023-02-03T16:17:01;3.20;99.90
20233;DHT22;37438;55.674;13.074;2023-02-03T16:20:29;3.10;99.90
20233;DHT22;37438;55.674;13.074;2023-02-03T16:23:54;3.20;99.90
20233;DHT22;37438;55.674;13.074;2023-02-03T16:27:31;3.10;99.90
20233;DHT22;37438;55.674;13.074;2023-02-03T16:30:59;3.20;99.90
20233;DHT22;37438;55.674;13.074;2023-02-03T16:34:24;3.00;99.90
20233;DHT22;37438;55.674;13.074;2023-02-03T16:37:50;2.90;99.90
20233;DHT22;37438;55.674;13.074;2023-02-03T16:41:16;2.90;99.90
20233;DHT22;37438;55.674;13.074;2023-02-03T16:44:40;2.80;99.90
20233;DHT22;37438;55.674;13.074;2023-02-03T16:48:03;2.90;99.90
20233;DHT22;37438;55.674;13.074;2023-02-03T16:51:41;2.90;99.90
20233;DHT22;37438;55.674;13.074;2023-02-03T16:54:46;2.80;99.90
20233;DHT22;37438;55.674;13.074;2023-02-03T16:58:06;2.80;99.90
20233;DHT22;37438;55.674;13.074;2023-02-03T17:01:14;2.70;99.90
20233;DHT22;37438;55.674;13.074;2023-02-03T17:04:22;2.70;99.90
20233;DHT22;37438;55.674;13.074;2023-02-03T17:07:32;2.70;99.90
20233;DHT22;37438;55.674;13.074;2023-02-03T17:10:45;2.70;99.90
20233;DHT22;37438;55.674;13.074;2023-02-03T17:13:54;2.60;99.90
20233;DHT22;37438;55.674;13.074;2023-02-03T17:16:59;2.60;99.90
20233;DHT22;37438;55.674;13.074;2023-02-03T17:20:07;2.60;99.90
20233;DHT22;37438;55.674;13.074;2023-02-03T17:23:27;2.50;99.90
20233;DHT22;37438;55.674;13.074;2023-02-03T17:26:41;2.40;99.90
20233;DHT22;37438;55.674;13.074;2023-02-03T17:29:50;2.40;99.90
20233;DHT22;37438;55.674;13.074;2023-02-03T17:33:09;2.40;99.90
20233;DHT22;37438;55.674;13.074;2023-02-03T17:36:29;2.40;99.90
20233;DHT22;37438;55.674;13.074;2023-02-03T17:39:35;2.40;99.90
20233;DHT22;37438;55.674;13.074;2023-02-03T17:42:58;2.30;99.90
20233;DHT22;37438;55.674;13.074;2023-02-03T17:46:23;2.30;99.90
20233;DHT22;37438;55.674;13.074;2023-02-03T17:49:46;2.30;99.90
20233;DHT22;37438;55.674;13.074;2023-02-03T17:53:10;2.30;99.90
20233;DHT22;37438;55.674;13.074;2023-02-03T17:56:21;2.30;99.90
20233;DHT22;37438;55.674;13.074;2023-02-03T17:59:29;2.20;99.90
20233;DHT22;37438;55.674;13.074;2023-02-03T18:02:36;2.30;99.90
20233;DHT22;37438;55.674;13.074;2023-02-03T18:05:52;2.20;99.90
20233;DHT22;37438;55.674;13.074;2023-02-03T18:08:58;2.30;99.90
20233;DHT22;37438;55.674;13.074;2023-02-03T18:12:07;2.30;99.90
20233;DHT22;37438;55.674;13.074;2023-02-03T18:15:14;2.30;99.90
20233;DHT22;37438;55.674;13.074;2023-02-03T18:18:21;2.20;99.90
20233;DHT22;37438;55.674;13.074;2023-02-03T18:21:35;2.20;99.90
20233;DHT22;37438;55.674;13.074;2023-02-03T18:24:55;2.30;99.90
20233;DHT22;37438;55.674;13.074;2023-02-03T18:28:14;2.20;99.90
20233;DHT22;37438;55.674;13.074;2023-02-03T18:31:25;2.20;99.90
20233;DHT22;37438;55.674;13.074;2023-02-03T18:34:51;2.20;99.90
20233;DHT22;37438;55.674;13.074;2023-02-03T18:37:57;2.30;99.90
20233;DHT22;37438;55.674;13.074;2023-02-03T18:41:04;2.20;99.90
20233;DHT22;37438;55.674;13.074;2023-02-03T18:44:11;2.20;99.90
20233;DHT22;37438;55.674;13.074;2023-02-03T18:47:20;2.20;99.90
20233;DHT22;37438;55.674;13.074;2023-02-03T18:50:28;2.20;99.90
20233;DHT22;37438;55.674;13.074;2023-02-03T18:53:34;2.40;99.90
20233;DHT22;37438;55.674;13.074;2023-02-03T18:56:45;2.30;99.90
20233;DHT22;37438;55.674;13.074;2023-02-03T18:59:51;2.20;99.90
20233;DHT22;37438;55.674;13.074;2023-02-03T19:02:56;2.20;99.90
20233;DHT22;37438;55.674;13.074;2023-02-03T19:06:07;2.30;99.90
20233;DHT22;37438;55.674;13.074;2023-02-03T19:09:14;2.20;99.90
20233;DHT22;37438;55.674;13.074;2023-02-03T19:12:22;2.20;99.90
20233;DHT22;37438;55.674;13.074;2023-02-03T19:15:42;2.20;99.90
20233;DHT22;37438;55.674;13.074;2023-02-03T19:18:50;2.20;99.90
20233;DHT22;37438;55.674;13.074;2023-02-03T19:21:56;2.30;99.90
20233;DHT22;37438;55.674;13.074;2023-02-03T19:25:16;2.20;99.90
20233;DHT22;37438;55.674;13.074;2023-02-03T19:28:21;2.20;99.90
20233;DHT22;37438;55.674;13.074;2023-02-03T19:31:35;2.20;99.90
20233;DHT22;37438;55.674;13.074;2023-02-03T19:34:40;2.10;99.90
20233;DHT22;37438;55.674;13.074;2023-02-03T19:37:45;2.30;99.90
20233;DHT22;37438;55.674;13.074;2023-02-03T19:40:54;2.00;99.90
20233;DHT22;37438;55.674;13.074;2023-02-03T19:44:03;2.00;99.90
20233;DHT22;37438;55.674;13.074;2023-02-03T19:47:15;2.00;99.90
20233;DHT22;37438;55.674;13.074;2023-02-03T19:50:21;1.90;99.90
20233;DHT22;37438;55.674;13.074;2023-02-03T19:53:26;1.80;99.90
20233;DHT22;37438;55.674;13.074;2023-02-03T19:56:32;1.80;99.90
20233;DHT22;37438;55.674;13.074;2023-02-03T19:59:38;1.80;99.90
20233;DHT22;37438;55.674;13.074;2023-02-03T20:02:44;1.80;99.90
20233;DHT22;37438;55.674;13.074;2023-02-03T20:05:49;1.80;99.90
20233;DHT22;37438;55.674;13.074;2023-02-03T20:08:58;1.70;99.90
20233;DHT22;37438;55.674;13.074;2023-02-03T20:12:05;1.70;99.90
20233;DHT22;37438;55.674;13.074;2023-02-03T20:15:14;1.70;99.90
20233;DHT22;37438;55.674;13.074;2023-02-03T20:18:22;1.70;99.90
20233;DHT22;37438;55.674;13.074;2023-02-03T20:21:29;1.80;99.90
20233;DHT22;37438;55.674;13.074;2023-02-03T20:24:37;1.60;99.90
20233;DHT22;37438;55.674;13.074;2023-02-03T20:27:41;1.70;99.90
20233;DHT22;37438;55.674;13.074;2023-02-03T20:30:56;1.70;99.90
20233;DHT22;37438;55.674;13.074;2023-02-03T20:34:02;1.70;99.90
20233;DHT22;37438;55.674;13.074;2023-02-03T20:37:08;1.70;99.90
20233;DHT22;37438;55.674;13.074;2023-02-03T20:40:16;1.80;99.90
20233;DHT22;37438;55.674;13.074;2023-02-03T20:43:26;1.80;99.90
20233;DHT22;37438;55.674;13.074;2023-02-03T20:46:45;1.70;99.90
20233;DHT22;37438;55.674;13.074;2023-02-03T20:49:50;1.70;99.90
20233;DHT22;37438;55.674;13.074;2023-02-03T20:52:58;1.80;99.90
20233;DHT22;37438;55.674;13.074;2023-02-03T20:56:10;1.70;99.90
20233;DHT22;37438;55.674;13.074;2023-02-03T20:59:19;1.70;99.90
20233;DHT22;37438;55.674;13.074;2023-02-03T21:02:25;1.70;99.90
20233;DHT22;37438;55.674;13.074;2023-02-03T21:05:53;1.60;99.90
20233;DHT22;37438;55.674;13.074;2023-02-03T21:09:14;1.60;99.90
20233;DHT22;37438;55.674;13.074;2023-02-03T21:12:32;1.50;99.90
20233;DHT22;37438;55.674;13.074;2023-02-03T21:15:41;1.60;99.90
20233;DHT22;37438;55.674;13.074;2023-02-03T21:19:01;1.40;99.90
20233;DHT22;37438;55.674;13.074;2023-02-03T21:25:29;1.20;99.90
20233;DHT22;37438;55.674;13.074;2023-02-03T21:28:53;1.20;99.90
20233;DHT22;37438;55.674;13.074;2023-02-03T21:32:15;1.20;99.90
20233;DHT22;37438;55.674;13.074;2023-02-03T21:35:23;1.10;99.90
20233;DHT22;37438;55.674;13.074;2023-02-03T21:38:31;1.10;99.90
20233;DHT22;37438;55.674;13.074;2023-02-03T21:41:39;1.00;99.90
20233;DHT22;37438;55.674;13.074;2023-02-03T21:44:44;1.00;99.90
20233;DHT22;37438;55.674;13.074;2023-02-03T21:47:50;1.00;99.90
20233;DHT22;37438;55.674;13.074;2023-02-03T21:51:34;0.80;99.90
20233;DHT22;37438;55.674;13.074;2023-02-03T21:54:53;0.90;99.90
20233;DHT22;37438;55.674;13.074;2023-02-03T21:58:03;1.00;99.90
20233;DHT22;37438;55.674;13.074;2023-02-03T22:01:13;0.90;99.90
20233;DHT22;37438;55.674;13.074;2023-02-03T22:04:27;0.80;99.90
20233;DHT22;37438;55.674;13.074;2023-02-03T22:07:33;0.90;99.90
20233;DHT22;37438;55.674;13.074;2023-02-03T22:10:38;0.70;99.90
20233;DHT22;37438;55.674;13.074;2023-02-03T22:13:45;0.70;99.90
20233;DHT22;37438;55.674;13.074;2023-02-03T22:16:51;0.80;99.90
20233;DHT22;37438;55.674;13.074;2023-02-03T22:19:58;0.70;99.90
20233;DHT22;37438;55.674;13.074;2023-02-03T22:23:03;0.70;99.90
20233;DHT22;37438;55.674;13.074;2023-02-03T22:26:12;0.70;99.90
20233;DHT22;37438;55.674;13.074;2023-02-03T22:29:17;0.70;99.90
20233;DHT22;37438;55.674;13.074;2023-02-03T22:32:22;0.60;99.90
20233;DHT22;37438;55.674;13.074;2023-02-03T22:35:27;0.60;99.90
20233;DHT22;37438;55.674;13.074;2023-02-03T22:38:34;0.60;99.90
20233;DHT22;37438;55.674;13.074;2023-02-03T22:41:40;0.60;99.90
20233;DHT22;37438;55.674;13.074;2023-02-03T22:44:47;0.60;99.90
20233;DHT22;37438;55.674;13.074;2023-02-03T22:47:53;0.50;99.90
20233;DHT22;37438;55.674;13.074;2023-02-03T22:51:03;0.50;99.90
20233;DHT22;37438;55.674;13.074;2023-02-03T22:54:08;0.40;99.90
20233;DHT22;37438;55.674;13.074;2023-02-03T22:57:15;0.40;99.90
20233;DHT22;37438;55.674;13.074;2023-02-03T23:00:23;0.40;99.90
20233;DHT22;37438;55.674;13.074;2023-02-03T23:03:29;0.30;99.90
20233;DHT22;37438;55.674;13.074;2023-02-03T23:06:36;0.40;99.90
20233;DHT22;37438;55.674;13.074;2023-02-03T23:09:41;0.30;99.90
20233;DHT22;37438;55.674;13.074;2023-02-03T23:12:45;0.30;99.90
20233;DHT22;37438;55.674;13.074;2023-02-03T23:15:50;0.20;99.90
20233;DHT22;37438;55.674;13.074;2023-02-03T23:18:55;0.20;99.90
20233;DHT22;37438;55.674;13.074;2023-02-03T23:22:00;0.20;99.90
20233;DHT22;37438;55.674;13.074;2023-02-03T23:25:06;0.20;99.90
20233;DHT22;37438;55.674;13.074;2023-02-03T23:28:11;0.20;99.90
20233;DHT22;37438;55.674;13.074;2023-02-03T23:31:16;0.20;99.90
20233;DHT22;37438;55.674;13.074;2023-02-03T23:34:21;0.10;99.90
20233;DHT22;37438;55.674;13.074;2023-02-03T23:37:45;0.10;99.90
20233;DHT22;37438;55.674;13.074;2023-02-03T23:40:51;0.10;99.90
20233;DHT22;37438;55.674;13.074;2023-02-03T23:43:58;0.10;99.90
20233;DHT22;37438;55.674;13.074;2023-02-03T23:47:04;-0.10;99.90
20233;DHT22;37438;55.674;13.074;2023-02-03T23:50:13;0.00;99.90
20233;DHT22;37438;55.674;13.074;2023-02-03T23:53:19;0.00;99.90
20233;DHT22;37438;55.674;13.074;2023-02-03T23:56:24;-0.10;99.90
20233;DHT22;37438;55.674;13.074;2023-02-03T23:59:32;-0.10;99.90
